sensor_id;sensor_type;location;lat;lon;timestamp;temperature;humidity
10143;DHT22;5112;54.088;13.446;2022-10-17T00:05:57;9.60;99.90
10143;DHT22;5112;54.088;13.446;2022-10-17T00:15:59;9.70;99.90
10143;DHT22;5112;54.088;13.446;2022-10-17T00:26:04;9.70;99.90
10143;DHT22;5112;54.088;13.446;2022-10-17T00:36:08;9.70;99.90
10143;DHT22;5112;54.088;13.446;2022-10-17T00:46:11;9.60;99.90
10143;DHT22;5112;54.088;13.446;2022-10-17T00:56:13;9.60;99.90
10143;DHT22;5112;54.088;13.446;2022-10-17T01:06:17;9.60;99.90
10143;DHT22;5112;54.088;13.446;2022-10-17T01:16:24;9.80;99.90
10143;DHT22;5112;54.088;13.446;2022-10-17T01:26:40;9.50;99.90
10143;DHT22;5112;54.088;13.446;2022-10-17T01:36:55;9.50;99.90
10143;DHT22;5112;54.088;13.446;2022-10-17T01:47:00;9.80;99.90
10143;DHT22;5112;54.088;13.446;2022-10-17T01:57:07;10.00;99.90
10143;DHT22;5112;54.088;13.446;2022-10-17T02:07:11;10.10;99.90
10143;DHT22;5112;54.088;13.446;2022-10-17T02:17:20;10.20;99.90
10143;DHT22;5112;54.088;13.446;2022-10-17T02:27:32;10.30;99.90
10143;DHT22;5112;54.088;13.446;2022-10-17T02:37:36;10.40;99.90
10143;DHT22;5112;54.088;13.446;2022-10-17T02:47:46;10.50;99.90
10143;DHT22;5112;54.088;13.446;2022-10-17T02:57:52;10.60;99.90
10143;DHT22;5112;54.088;13.446;2022-10-17T03:07:55;10.70;99.90
10143;DHT22;5112;54.088;13.446;2022-10-17T03:17:58;10.70;99.90
10143;DHT22;5112;54.088;13.446;2022-10-17T03:28:00;10.80;99.90
10143;DHT22;5112;54.088;13.446;2022-10-17T03:38:03;10.80;99.90
10143;DHT22;5112;54.088;13.446;2022-10-17T03:48:05;10.90;99.90
10143;DHT22;5112;54.088;13.446;2022-10-17T03:58:08;10.90;99.90
10143;DHT22;5112;54.088;13.446;2022-10-17T04:08:09;10.90;99.90
10143;DHT22;5112;54.088;13.446;2022-10-17T04:18:12;11.00;99.90
10143;DHT22;5112;54.088;13.446;2022-10-17T04:28:14;11.00;99.90
10143;DHT22;5112;54.088;13.446;2022-10-17T04:38:17;11.20;99.90
10143;DHT22;5112;54.088;13.446;2022-10-17T04:48:19;11.30;99.90
10143;DHT22;5112;54.088;13.446;2022-10-17T04:58:22;11.30;99.90
10143;DHT22;5112;54.088;13.446;2022-10-17T05:08:24;11.30;99.90
10143;DHT22;5112;54.088;13.446;2022-10-17T05:18:27;11.20;99.90
10143;DHT22;5112;54.088;13.446;2022-10-17T05:28:29;11.40;99.90
10143;DHT22;5112;54.088;13.446;2022-10-17T05:38:33;11.40;99.90
10143;DHT22;5112;54.088;13.446;2022-10-17T05:48:35;11.60;99.90
10143;DHT22;5112;54.088;13.446;2022-10-17T05:58:40;11.80;99.90
10143;DHT22;5112;54.088;13.446;2022-10-17T06:08:43;12.20;99.90
10143;DHT22;5112;54.088;13.446;2022-10-17T06:18:46;12.60;99.90
10143;DHT22;5112;54.088;13.446;2022-10-17T06:28:48;12.80;99.90
10143;DHT22;5112;54.088;13.446;2022-10-17T06:38:51;12.90;99.90
10143;DHT22;5112;54.088;13.446;2022-10-17T06:48:52;13.20;99.90
10143;DHT22;5112;54.088;13.446;2022-10-17T06:58:55;14.00;99.90
10143;DHT22;5112;54.088;13.446;2022-10-17T07:08:57;14.30;99.90
10143;DHT22;5112;54.088;13.446;2022-10-17T07:19:01;14.50;99.90
10143;DHT22;5112;54.088;13.446;2022-10-17T07:29:03;14.60;99.90
10143;DHT22;5112;54.088;13.446;2022-10-17T07:39:07;14.70;99.90
10143;DHT22;5112;54.088;13.446;2022-10-17T07:49:08;15.10;99.90
10143;DHT22;5112;54.088;13.446;2022-10-17T07:59:11;15.30;99.90
10143;DHT22;5112;54.088;13.446;2022-10-17T08:09:13;15.70;99.90
10143;DHT22;5112;54.088;13.446;2022-10-17T08:19:16;16.70;99.90
10143;DHT22;5112;54.088;13.446;2022-10-17T08:29:18;17.30;99.90
10143;DHT22;5112;54.088;13.446;2022-10-17T08:39:21;17.70;99.90
10143;DHT22;5112;54.088;13.446;2022-10-17T08:49:27;17.80;99.90
10143;DHT22;5112;54.088;13.446;2022-10-17T08:59:34;18.00;99.90
10143;DHT22;5112;54.088;13.446;2022-10-17T09:09:41;18.20;99.90
10143;DHT22;5112;54.088;13.446;2022-10-17T09:19:56;18.40;99.90
10143;DHT22;5112;54.088;13.446;2022-10-17T09:30:22;18.50;99.90
10143;DHT22;5112;54.088;13.446;2022-10-17T09:40:31;18.90;99.90
10143;DHT22;5112;54.088;13.446;2022-10-17T09:50:34;19.00;99.90
10143;DHT22;5112;54.088;13.446;2022-10-17T10:00:39;19.10;99.90
10143;DHT22;5112;54.088;13.446;2022-10-17T10:10:41;19.80;99.90
10143;DHT22;5112;54.088;13.446;2022-10-17T10:20:44;20.40;99.90
10143;DHT22;5112;54.088;13.446;2022-10-17T10:30:48;19.60;99.90
10143;DHT22;5112;54.088;13.446;2022-10-17T10:40:54;19.90;99.90
10143;DHT22;5112;54.088;13.446;2022-10-17T10:50:57;20.20;99.90
10143;DHT22;5112;54.088;13.446;2022-10-17T11:01:05;20.60;99.90
10143;DHT22;5112;54.088;13.446;2022-10-17T11:11:13;21.40;99.90
10143;DHT22;5112;54.088;13.446;2022-10-17T11:21:25;21.70;99.90
10143;DHT22;5112;54.088;13.446;2022-10-17T11:31:31;22.30;99.90
10143;DHT22;5112;54.088;13.446;2022-10-17T11:41:40;22.70;99.90
10143;DHT22;5112;54.088;13.446;2022-10-17T11:51:45;22.40;99.90
10143;DHT22;5112;54.088;13.446;2022-10-17T12:01:52;22.70;99.90
10143;DHT22;5112;54.088;13.446;2022-10-17T12:11:56;22.80;99.90
10143;DHT22;5112;54.088;13.446;2022-10-17T12:22:11;22.90;99.90
10143;DHT22;5112;54.088;13.446;2022-10-17T12:32:17;22.70;99.90
10143;DHT22;5112;54.088;13.446;2022-10-17T12:42:45;22.50;99.90
10143;DHT22;5112;54.088;13.446;2022-10-17T12:52:59;22.80;99.90
10143;DHT22;5112;54.088;13.446;2022-10-17T13:03:12;23.10;99.90
10143;DHT22;5112;54.088;13.446;2022-10-17T13:13:17;22.40;99.90
10143;DHT22;5112;54.088;13.446;2022-10-17T13:23:23;22.00;99.90
10143;DHT22;5112;54.088;13.446;2022-10-17T13:33:32;21.70;99.90
10143;DHT22;5112;54.088;13.446;2022-10-17T13:43:36;22.50;99.90
10143;DHT22;5112;54.088;13.446;2022-10-17T13:53:40;22.40;99.90
10143;DHT22;5112;54.088;13.446;2022-10-17T14:03:46;22.00;99.90
10143;DHT22;5112;54.088;13.446;2022-10-17T14:13:49;22.00;99.90
10143;DHT22;5112;54.088;13.446;2022-10-17T14:24:12;21.80;99.90
10143;DHT22;5112;54.088;13.446;2022-10-17T14:34:20;21.70;99.90
10143;DHT22;5112;54.088;13.446;2022-10-17T14:44:27;21.70;99.90
10143;DHT22;5112;54.088;13.446;2022-10-17T14:54:29;21.40;99.90
10143;DHT22;5112;54.088;13.446;2022-10-17T15:04:33;21.30;99.90
10143;DHT22;5112;54.088;13.446;2022-10-17T15:14:35;21.10;99.90
10143;DHT22;5112;54.088;13.446;2022-10-17T15:24:38;21.00;99.90
10143;DHT22;5112;54.088;13.446;2022-10-17T15:34:39;20.80;99.90
10143;DHT22;5112;54.088;13.446;2022-10-17T15:44:42;20.70;99.90
10143;DHT22;5112;54.088;13.446;2022-10-17T15:54:49;20.60;99.90
10143;DHT22;5112;54.088;13.446;2022-10-17T16:04:52;20.70;99.90
10143;DHT22;5112;54.088;13.446;2022-10-17T16:14:54;20.30;99.90
10143;DHT22;5112;54.088;13.446;2022-10-17T16:24:57;20.20;99.90
10143;DHT22;5112;54.088;13.446;2022-10-17T16:35:07;20.00;99.90
10143;DHT22;5112;54.088;13.446;2022-10-17T16:45:15;19.90;99.90
10143;DHT22;5112;54.088;13.446;2022-10-17T16:55:17;19.90;99.90
10143;DHT22;5112;54.088;13.446;2022-10-17T17:05:21;19.70;99.90
10143;DHT22;5112;54.088;13.446;2022-10-17T17:15:22;19.70;99.90
10143;DHT22;5112;54.088;13.446;2022-10-17T17:25:25;19.50;99.90
10143;DHT22;5112;54.088;13.446;2022-10-17T17:35:27;19.40;99.90
10143;DHT22;5112;54.088;13.446;2022-10-17T17:45:31;19.50;99.90
10143;DHT22;5112;54.088;13.446;2022-10-17T17:55:35;19.50;99.90
10143;DHT22;5112;54.088;13.446;2022-10-17T18:05:40;19.20;99.90
10143;DHT22;5112;54.088;13.446;2022-10-17T18:15:42;19.20;99.90
10143;DHT22;5112;54.088;13.446;2022-10-17T18:25:53;19.10;99.90
10143;DHT22;5112;54.088;13.446;2022-10-17T18:35:54;19.00;99.90
10143;DHT22;5112;54.088;13.446;2022-10-17T18:46:02;19.00;99.90
10143;DHT22;5112;54.088;13.446;2022-10-17T18:56:04;18.90;99.90
10143;DHT22;5112;54.088;13.446;2022-10-17T19:06:09;18.90;99.90
10143;DHT22;5112;54.088;13.446;2022-10-17T19:16:13;18.60;99.90
10143;DHT22;5112;54.088;13.446;2022-10-17T19:26:16;18.60;99.90
10143;DHT22;5112;54.088;13.446;2022-10-17T19:36:19;18.50;99.90
10143;DHT22;5112;54.088;13.446;2022-10-17T19:46:24;18.40;99.90
10143;DHT22;5112;54.088;13.446;2022-10-17T19:56:28;18.30;99.90
10143;DHT22;5112;54.088;13.446;2022-10-17T20:06:32;18.20;99.90
10143;DHT22;5112;54.088;13.446;2022-10-17T20:16:35;18.00;99.90
10143;DHT22;5112;54.088;13.446;2022-10-17T20:26:38;17.90;99.90
10143;DHT22;5112;54.088;13.446;2022-10-17T20:36:40;17.80;99.90
10143;DHT22;5112;54.088;13.446;2022-10-17T20:46:43;17.70;99.90
10143;DHT22;5112;54.088;13.446;2022-10-17T20:56:45;17.70;99.90
10143;DHT22;5112;54.088;13.446;2022-10-17T21:06:48;17.50;99.90
10143;DHT22;5112;54.088;13.446;2022-10-17T21:16:51;17.40;99.90
10143;DHT22;5112;54.088;13.446;2022-10-17T21:26:54;17.20;99.90
10143;DHT22;5112;54.088;13.446;2022-10-17T21:36:56;17.20;99.90
10143;DHT22;5112;54.088;13.446;2022-10-17T21:46:59;17.20;99.90
10143;DHT22;5112;54.088;13.446;2022-10-17T21:57:01;17.10;99.90
10143;DHT22;5112;54.088;13.446;2022-10-17T22:07:04;17.00;99.90
10143;DHT22;5112;54.088;13.446;2022-10-17T22:17:06;17.00;99.90
10143;DHT22;5112;54.088;13.446;2022-10-17T22:27:09;17.00;99.90
10143;DHT22;5112;54.088;13.446;2022-10-17T22:37:10;17.10;99.90
10143;DHT22;5112;54.088;13.446;2022-10-17T22:47:13;16.90;99.90
10143;DHT22;5112;54.088;13.446;2022-10-17T22:57:15;16.80;99.90
10143;DHT22;5112;54.088;13.446;2022-10-17T23:07:18;16.80;99.90
10143;DHT22;5112;54.088;13.446;2022-10-17T23:17:19;16.70;99.90
10143;DHT22;5112;54.088;13.446;2022-10-17T23:27:22;16.70;99.90
10143;DHT22;5112;54.088;13.446;2022-10-17T23:37:24;16.60;99.90
10143;DHT22;5112;54.088;13.446;2022-10-17T23:47:27;16.60;99.90
10143;DHT22;5112;54.088;13.446;2022-10-17T23:57:30;16.50;99.90
